Time;durP1;ratioP1;P1;durP2;ratioP2;P2;SDS_P1;SDS_P2;PMS_P1;PMS_P2;Temp;Humidity;BMP_temperature;BMP_pressure;BME280_temperature;BME280_humidity;BME280_pressure;Samples;Min_cycle;Max_cycle;Signal;HPM_P1;HPM_P2
2023/10/28 00:00:47;;;;;;;3.37;1.20;;;12.60;99.90;;;;;;4999399;28;20451;-74
2023/10/28 00:03:12;;;;;;;3.07;1.20;;;12.60;99.90;;;;;;5000571;28;20316;-73
2023/10/28 00:05:38;;;;;;;2.53;1.43;;;12.60;99.90;;;;;;4990768;28;20518;-74
2023/10/28 00:08:05;;;;;;;1.97;1.30;;;12.50;99.90;;;;;;4994386;28;20552;-74
2023/10/28 00:10:32;;;;;;;2.80;1.53;;;12.50;99.90;;;;;;5005604;28;20444;-74
2023/10/28 00:12:58;;;;;;;2.90;1.30;;;12.40;99.90;;;;;;5002685;28;20424;-74
2023/10/28 00:15:24;;;;;;;3.17;1.20;;;12.40;99.90;;;;;;4993467;28;20482;-74
2023/10/28 00:17:50;;;;;;;2.57;1.47;;;12.40;99.90;;;;;;5003724;28;20174;-74
2023/10/28 00:20:17;;;;;;;2.93;1.40;;;12.40;99.90;;;;;;4998570;28;20189;-74
2023/10/28 00:22:44;;;;;;;2.30;1.60;;;12.30;99.90;;;;;;4989787;28;20963;-75
2023/10/28 00:25:11;;;;;;;2.80;1.70;;;12.30;99.90;;;;;;4991473;28;20524;-75
2023/10/28 00:27:36;;;;;;;4.77;1.80;;;12.30;99.90;;;;;;4999723;28;20439;-75
2023/10/28 00:30:02;;;;;;;3.00;1.53;;;12.20;99.90;;;;;;4994659;28;20440;-75
2023/10/28 00:32:28;;;;;;;3.17;1.40;;;12.20;99.90;;;;;;4997505;28;20671;-74
2023/10/28 00:34:54;;;;;;;2.27;1.33;;;12.20;99.90;;;;;;4993829;28;20964;-74
2023/10/28 00:37:19;;;;;;;2.70;1.40;;;12.20;99.90;;;;;;4997355;28;20474;-74
2023/10/28 00:39:46;;;;;;;4.17;1.57;;;12.20;99.90;;;;;;4994499;28;20207;-74
2023/10/28 00:42:17;;;;;;;2.63;1.53;;;12.20;99.90;;;;;;4995684;28;20181;-74
2023/10/28 00:44:43;;;;;;;2.47;1.50;;;12.10;99.90;;;;;;4995689;28;20452;-74
2023/10/28 00:47:09;;;;;;;3.47;1.50;;;12.10;99.90;;;;;;4990375;28;20811;-75
2023/10/28 00:49:35;;;;;;;3.90;1.40;;;12.20;99.90;;;;;;5001684;28;20575;-75
2023/10/28 00:52:02;;;;;;;3.50;1.30;;;12.10;99.90;;;;;;4995043;28;20418;-75
2023/10/28 00:54:28;;;;;;;3.47;1.47;;;12.00;99.90;;;;;;5001426;28;20493;-75
2023/10/28 00:56:55;;;;;;;2.90;1.70;;;12.00;99.90;;;;;;5006557;28;20460;-75
2023/10/28 00:59:20;;;;;;;2.10;1.40;;;12.00;99.90;;;;;;4997878;28;20432;-75
2023/10/28 01:01:46;;;;;;;2.07;1.20;;;11.90;99.90;;;;;;4993311;28;20499;-74
2023/10/28 01:04:12;;;;;;;3.00;1.60;;;12.00;99.90;;;;;;4995225;28;20364;-74
2023/10/28 01:06:38;;;;;;;2.73;1.50;;;12.00;99.90;;;;;;5004073;28;20215;-74
2023/10/28 01:09:04;;;;;;;3.83;1.50;;;12.10;99.90;;;;;;4995884;28;20284;-75
2023/10/28 01:11:30;;;;;;;3.27;1.73;;;12.20;99.90;;;;;;4996419;28;20488;-74
2023/10/28 01:13:56;;;;;;;3.50;1.30;;;12.20;99.90;;;;;;4995943;28;20456;-74
2023/10/28 01:16:26;;;;;;;2.60;1.70;;;12.10;99.90;;;;;;4994546;28;20649;-73
2023/10/28 01:18:58;;;;;;;3.63;1.60;;;12.00;99.90;;;;;;4992029;28;20204;-73
2023/10/28 01:21:23;;;;;;;2.87;1.70;;;12.00;99.90;;;;;;4999121;28;20963;-74
2023/10/28 01:23:49;;;;;;;3.63;1.60;;;12.00;99.90;;;;;;5001405;28;20427;-74
2023/10/28 01:26:15;;;;;;;2.40;1.40;;;12.00;99.90;;;;;;4988862;28;20178;-74
2023/10/28 01:28:41;;;;;;;3.33;1.40;;;12.00;99.90;;;;;;4997042;28;20888;-74
2023/10/28 01:31:08;;;;;;;1.93;1.33;;;12.00;99.90;;;;;;4992349;28;20259;-74
2023/10/28 01:33:33;;;;;;;3.23;1.73;;;12.00;99.90;;;;;;4996837;28;20178;-74
2023/10/28 01:35:59;;;;;;;2.37;1.63;;;12.10;99.90;;;;;;4995005;28;20835;-74
2023/10/28 01:38:26;;;;;;;7.10;1.73;;;12.20;99.90;;;;;;5000609;28;20200;-74
2023/10/28 01:40:52;;;;;;;5.57;1.63;;;12.20;99.90;;;;;;4993853;28;20274;-74
2023/10/28 01:43:19;;;;;;;5.10;1.67;;;12.20;99.90;;;;;;4991792;28;20960;-74
2023/10/28 01:45:45;;;;;;;2.97;1.30;;;12.20;99.90;;;;;;4996306;28;20959;-74
2023/10/28 01:48:12;;;;;;;5.00;1.93;;;12.20;99.90;;;;;;4998806;28;20459;-74
2023/10/28 01:50:37;;;;;;;7.80;1.60;;;12.20;99.90;;;;;;4996248;28;21005;-73
2023/10/28 01:53:03;;;;;;;2.20;1.50;;;12.20;99.90;;;;;;4998609;28;20424;-73
2023/10/28 01:55:29;;;;;;;2.23;1.50;;;12.20;99.90;;;;;;4987597;28;20452;-73
2023/10/28 01:57:55;;;;;;;2.43;1.50;;;12.20;99.90;;;;;;4995589;28;20192;-73
2023/10/28 02:00:30;;;;;;;2.87;1.63;;;12.20;99.90;;;;;;4995939;28;20888;-75
2023/10/28 02:02:56;;;;;;;4.70;1.80;;;12.10;99.90;;;;;;4999382;28;20442;-74
2023/10/28 02:05:22;;;;;;;2.70;1.57;;;12.20;99.90;;;;;;5005842;28;20421;-75
2023/10/28 02:07:47;;;;;;;3.63;1.87;;;12.20;99.90;;;;;;4996870;28;20935;-74
2023/10/28 02:10:13;;;;;;;3.00;1.73;;;12.20;99.90;;;;;;4997029;28;20202;-74
2023/10/28 02:12:38;;;;;;;2.87;1.67;;;12.20;99.90;;;;;;4995491;28;20181;-75
2023/10/28 02:15:06;;;;;;;3.77;1.80;;;12.20;99.90;;;;;;4995233;28;20639;-75
2023/10/28 02:17:32;;;;;;;4.37;1.63;;;12.30;99.90;;;;;;4992728;28;20344;-75
2023/10/28 02:19:58;;;;;;;2.40;1.50;;;12.30;99.90;;;;;;4997715;28;21035;-74
2023/10/28 02:22:24;;;;;;;2.90;1.47;;;12.30;99.90;;;;;;5005403;28;20209;-74
2023/10/28 02:24:49;;;;;;;3.90;1.77;;;12.30;99.90;;;;;;4988410;28;20192;-73
2023/10/28 02:27:15;;;;;;;2.77;1.37;;;12.30;99.90;;;;;;5000423;28;20424;-73
2023/10/28 02:29:41;;;;;;;6.53;1.70;;;12.30;99.90;;;;;;4991788;28;20233;-74
2023/10/28 02:32:08;;;;;;;4.90;1.73;;;12.40;99.90;;;;;;4994321;28;20982;-74
2023/10/28 02:34:34;;;;;;;3.50;1.77;;;12.40;99.90;;;;;;4996704;28;20178;-74
2023/10/28 02:37:00;;;;;;;4.50;2.03;;;12.30;99.90;;;;;;4998618;28;20416;-76
2023/10/28 02:39:26;;;;;;;2.07;1.40;;;12.30;99.90;;;;;;4989208;28;20439;-75
2023/10/28 02:41:53;;;;;;;4.00;1.60;;;12.40;99.90;;;;;;4997434;28;20478;-75
2023/10/28 02:44:19;;;;;;;3.63;1.57;;;12.30;99.90;;;;;;4995844;28;20688;-76
2023/10/28 02:46:44;;;;;;;3.20;1.80;;;12.40;99.90;;;;;;5000446;28;20535;-77
2023/10/28 02:49:11;;;;;;;8.57;2.13;;;12.40;99.90;;;;;;4994883;28;20201;-76
2023/10/28 02:51:37;;;;;;;4.43;2.27;;;12.40;99.90;;;;;;4998791;28;21628;-76
2023/10/28 02:54:03;;;;;;;4.90;2.07;;;12.40;99.90;;;;;;4997351;28;20424;-76
2023/10/28 02:56:29;;;;;;;7.50;2.20;;;12.40;99.90;;;;;;4994739;28;20432;-76
2023/10/28 02:58:55;;;;;;;3.60;2.53;;;12.40;99.90;;;;;;5000115;28;20852;-76
2023/10/28 03:01:20;;;;;;;3.30;1.80;;;12.50;99.90;;;;;;4992917;28;20436;-76
2023/10/28 03:03:46;;;;;;;9.90;1.80;;;12.50;99.90;;;;;;4999908;28;20727;-76
2023/10/28 03:06:12;;;;;;;5.83;2.20;;;12.50;99.90;;;;;;4994592;28;20209;-76
2023/10/28 03:08:38;;;;;;;5.87;1.80;;;12.50;99.90;;;;;;4996597;28;20248;-76
2023/10/28 03:11:04;;;;;;;3.83;2.10;;;12.50;99.90;;;;;;4996414;28;20440;-76
2023/10/28 03:13:30;;;;;;;4.33;1.57;;;12.50;99.90;;;;;;4999193;28;20449;-76
2023/10/28 03:15:56;;;;;;;4.93;1.63;;;12.60;99.90;;;;;;5001235;28;20482;-76
2023/10/28 03:18:22;;;;;;;7.07;1.90;;;12.50;99.90;;;;;;4993887;28;20649;-77
2023/10/28 03:20:48;;;;;;;5.93;1.90;;;12.60;99.90;;;;;;4998975;28;20196;-76
2023/10/28 03:23:14;;;;;;;3.60;1.80;;;12.60;99.90;;;;;;4995528;28;20428;-76
2023/10/28 03:25:40;;;;;;;5.30;1.70;;;12.60;99.90;;;;;;5000870;28;20897;-76
2023/10/28 03:28:06;;;;;;;7.87;2.10;;;12.60;99.90;;;;;;4992215;28;20467;-76
2023/10/28 03:30:33;;;;;;;4.33;2.20;;;12.60;99.90;;;;;;4995440;28;20198;-76
2023/10/28 03:32:59;;;;;;;4.27;2.13;;;12.70;99.90;;;;;;4996585;28;20217;-76
2023/10/28 03:35:25;;;;;;;6.70;2.20;;;12.70;99.90;;;;;;4995273;28;20419;-76
2023/10/28 03:37:50;;;;;;;8.97;2.00;;;12.70;99.90;;;;;;4996204;28;21180;-76
2023/10/28 03:40:16;;;;;;;5.17;2.17;;;12.70;99.90;;;;;;5004855;28;21148;-75
2023/10/28 03:42:41;;;;;;;3.80;1.87;;;12.70;99.90;;;;;;4996158;28;20185;-75
2023/10/28 03:45:07;;;;;;;5.00;2.03;;;12.70;99.90;;;;;;4994510;28;20247;-75
2023/10/28 03:47:34;;;;;;;6.60;2.10;;;12.80;99.90;;;;;;4990387;28;20172;-75
2023/10/28 03:49:59;;;;;;;7.07;2.47;;;12.80;99.90;;;;;;4991231;28;20479;-75
2023/10/28 03:52:26;;;;;;;5.77;2.37;;;12.70;99.90;;;;;;4989394;28;20856;-75
2023/10/28 03:54:51;;;;;;;7.20;1.83;;;12.80;99.90;;;;;;5001781;28;20192;-76
2023/10/28 03:57:17;;;;;;;8.60;2.23;;;12.80;99.90;;;;;;4999095;28;20863;-76
2023/10/28 03:59:45;;;;;;;4.73;2.27;;;12.80;99.90;;;;;;4991622;28;20209;-76
2023/10/28 04:02:11;;;;;;;9.87;2.10;;;12.80;99.90;;;;;;4996550;28;20207;-76
2023/10/28 04:04:37;;;;;;;4.43;1.83;;;12.80;99.90;;;;;;4994227;28;20550;-75
2023/10/28 04:07:03;;;;;;;4.83;1.90;;;12.70;99.90;;;;;;4995254;28;20265;-75
2023/10/28 04:09:28;;;;;;;3.00;1.90;;;12.70;99.90;;;;;;4992061;28;20543;-75
2023/10/28 04:11:54;;;;;;;4.43;1.93;;;12.90;99.90;;;;;;5000605;28;20185;-75
2023/10/28 04:14:19;;;;;;;4.30;1.80;;;12.90;99.90;;;;;;5001141;28;20544;-73
2023/10/28 04:16:45;;;;;;;3.70;2.00;;;12.90;99.90;;;;;;4999431;28;20179;-74
2023/10/28 04:19:11;;;;;;;7.30;2.10;;;13.00;99.90;;;;;;4997958;28;20265;-74
2023/10/28 04:21:37;;;;;;;7.83;2.70;;;13.00;99.90;;;;;;4995369;28;20273;-74
2023/10/28 04:24:03;;;;;;;3.40;2.00;;;12.90;99.90;;;;;;5007426;28;20199;-74
2023/10/28 04:26:29;;;;;;;6.33;2.07;;;12.90;99.90;;;;;;5000939;28;20967;-74
2023/10/28 04:28:59;;;;;;;4.73;2.00;;;12.90;99.90;;;;;;5002501;28;20505;-74
2023/10/28 04:31:28;;;;;;;5.53;1.87;;;13.00;99.90;;;;;;4989394;28;20198;-73
2023/10/28 04:33:54;;;;;;;5.03;1.80;;;13.00;99.90;;;;;;4996658;28;20535;-75
2023/10/28 04:36:19;;;;;;;5.50;2.00;;;13.00;99.90;;;;;;4996875;28;20532;-75
2023/10/28 04:38:45;;;;;;;6.83;2.00;;;13.00;99.90;;;;;;4997139;28;20185;-75
2023/10/28 04:41:10;;;;;;;4.20;1.93;;;13.00;99.90;;;;;;5005763;28;20291;-75
2023/10/28 04:43:36;;;;;;;5.27;1.70;;;13.10;99.90;;;;;;5003176;28;20225;-75
2023/10/28 04:46:02;;;;;;;5.40;1.87;;;13.10;99.90;;;;;;4996316;28;20661;-75
2023/10/28 04:48:28;;;;;;;5.80;1.90;;;13.10;99.90;;;;;;4999700;28;20205;-75
2023/10/28 04:50:56;;;;;;;4.10;1.83;;;13.10;99.90;;;;;;4997910;28;20204;-75
2023/10/28 04:53:24;;;;;;;3.37;1.50;;;13.10;99.90;;;;;;4992762;28;20444;-74
2023/10/28 04:55:50;;;;;;;6.00;1.90;;;13.10;99.90;;;;;;5002425;28;20795;-75
2023/10/28 04:58:16;;;;;;;5.97;2.00;;;13.10;99.90;;;;;;4998179;28;20429;-75
2023/10/28 05:00:42;;;;;;;3.70;1.70;;;13.20;99.90;;;;;;4996236;28;20214;-75
2023/10/28 05:03:08;;;;;;;3.47;1.50;;;13.10;99.90;;;;;;4996604;28;20557;-75
2023/10/28 05:05:34;;;;;;;3.90;1.73;;;13.10;99.90;;;;;;4991457;28;20427;-75
2023/10/28 05:08:00;;;;;;;4.70;1.73;;;13.10;99.90;;;;;;4997195;28;20181;-75
2023/10/28 05:10:25;;;;;;;4.17;1.97;;;13.10;99.90;;;;;;5001657;28;20205;-75
2023/10/28 05:12:51;;;;;;;4.40;1.43;;;13.20;99.90;;;;;;4999087;28;20260;-75
2023/10/28 05:15:17;;;;;;;3.30;2.00;;;13.20;99.90;;;;;;4995051;28;20185;-75
2023/10/28 05:17:43;;;;;;;4.53;1.80;;;13.20;99.90;;;;;;4993140;28;20201;-76
2023/10/28 05:20:09;;;;;;;5.43;1.53;;;13.20;99.90;;;;;;4997782;28;20550;-77
2023/10/28 05:22:39;;;;;;;4.57;2.00;;;13.20;99.90;;;;;;5000872;28;20185;-75
2023/10/28 05:25:07;;;;;;;7.93;2.27;;;13.20;99.90;;;;;;4990015;28;20558;-74
2023/10/28 05:27:33;;;;;;;3.33;1.67;;;13.30;99.90;;;;;;4991673;28;20444;-74
2023/10/28 05:29:59;;;;;;;2.30;1.50;;;13.40;99.90;;;;;;4996568;28;20606;-74
2023/10/28 05:32:25;;;;;;;4.43;1.90;;;13.30;99.90;;;;;;4998537;28;20500;-74
2023/10/28 05:34:51;;;;;;;4.07;1.37;;;13.30;99.90;;;;;;4998091;28;20535;-74
2023/10/28 05:37:16;;;;;;;3.03;1.63;;;13.40;99.90;;;;;;4998716;28;20423;-75
2023/10/28 05:39:42;;;;;;;2.73;1.80;;;13.40;99.90;;;;;;4993596;28;20240;-75
2023/10/28 05:42:08;;;;;;;4.83;1.30;;;13.30;99.90;;;;;;4994084;28;20193;-75
2023/10/28 05:44:35;;;;;;;3.27;1.37;;;13.30;99.90;;;;;;4994412;28;20548;-75
2023/10/28 05:47:01;;;;;;;4.30;1.47;;;13.20;99.90;;;;;;4993704;28;20177;-75
2023/10/28 05:49:27;;;;;;;5.50;1.60;;;13.20;99.90;;;;;;4996386;28;20463;-75
2023/10/28 05:51:53;;;;;;;3.80;1.40;;;13.20;99.90;;;;;;4992213;28;20431;-75
2023/10/28 05:54:20;;;;;;;3.80;1.57;;;13.30;99.90;;;;;;4996102;28;20267;-75
2023/10/28 05:56:45;;;;;;;2.53;1.43;;;13.30;99.90;;;;;;4993143;28;20814;-74
2023/10/28 05:59:11;;;;;;;6.70;1.80;;;13.30;99.90;;;;;;4994184;28;20420;-74
2023/10/28 06:01:37;;;;;;;5.10;1.40;;;13.30;99.90;;;;;;4996249;28;20272;-75
2023/10/28 06:04:03;;;;;;;3.27;1.60;;;13.40;99.90;;;;;;4999669;28;20197;-75
2023/10/28 06:06:29;;;;;;;2.10;1.50;;;13.40;99.90;;;;;;4991737;28;20196;-75
2023/10/28 06:08:57;;;;;;;3.30;1.60;;;13.40;99.90;;;;;;4998295;28;20456;-71
2023/10/28 06:11:23;;;;;;;2.60;1.50;;;13.40;99.90;;;;;;5002772;28;20447;-72
2023/10/28 06:13:48;;;;;;;2.67;1.50;;;13.40;99.90;;;;;;4995826;28;20433;-72
2023/10/28 06:16:14;;;;;;;3.10;1.70;;;13.40;99.90;;;;;;4988678;28;20424;-73
2023/10/28 06:18:40;;;;;;;3.80;1.47;;;13.40;99.90;;;;;;5006590;28;20204;-72
2023/10/28 06:21:06;;;;;;;2.90;1.43;;;13.50;99.90;;;;;;4998910;28;20201;-72
2023/10/28 06:23:32;;;;;;;4.43;1.50;;;13.50;99.90;;;;;;4996366;28;20200;-73
2023/10/28 06:25:57;;;;;;;2.93;1.50;;;13.50;99.90;;;;;;4998671;28;20192;-75
2023/10/28 06:28:23;;;;;;;6.60;2.03;;;13.50;99.90;;;;;;4996937;28;20804;-72
2023/10/28 06:30:49;;;;;;;3.17;1.50;;;13.60;99.90;;;;;;4996103;28;20690;-73
2023/10/28 06:33:15;;;;;;;5.63;1.73;;;13.60;99.90;;;;;;4996426;28;20182;-73
2023/10/28 06:35:41;;;;;;;5.30;1.80;;;13.60;99.90;;;;;;4996304;28;20557;-74
2023/10/28 06:38:08;;;;;;;4.40;1.90;;;13.60;99.90;;;;;;4990647;28;20520;-72
2023/10/28 06:40:36;;;;;;;7.63;2.03;;;13.60;99.90;;;;;;4992886;28;20211;-73
2023/10/28 06:43:02;;;;;;;5.30;1.93;;;13.70;99.90;;;;;;4994485;28;20421;-73
2023/10/28 06:45:28;;;;;;;3.53;1.50;;;13.60;99.90;;;;;;4999035;28;20420;-73
2023/10/28 06:47:53;;;;;;;5.20;2.03;;;13.60;99.90;;;;;;5004496;28;20416;-72
2023/10/28 06:50:22;;;;;;;3.00;1.50;;;13.60;99.90;;;;;;5000271;28;20292;-71
2023/10/28 06:52:48;;;;;;;4.47;1.60;;;13.60;99.90;;;;;;5003858;28;20173;-73
2023/10/28 06:55:14;;;;;;;4.73;1.83;;;13.70;99.90;;;;;;4995880;28;20845;-73
2023/10/28 06:57:41;;;;;;;4.43;1.70;;;13.60;99.90;;;;;;4997462;28;20412;-72
2023/10/28 07:00:12;;;;;;;8.47;1.87;;;13.70;99.90;;;;;;4993448;28;20457;-72
2023/10/28 07:02:39;;;;;;;2.87;1.70;;;13.60;99.90;;;;;;4995262;28;20444;-72
2023/10/28 07:05:04;;;;;;;3.87;2.17;;;13.60;99.90;;;;;;5000700;28;20481;-71
2023/10/28 07:07:30;;;;;;;4.10;1.80;;;13.60;99.90;;;;;;5001939;28;20427;-72
2023/10/28 07:09:57;;;;;;;5.90;1.83;;;13.70;99.90;;;;;;4998251;28;20209;-72
2023/10/28 07:12:22;;;;;;;3.67;1.83;;;13.80;99.90;;;;;;4991927;28;20227;-73
2023/10/28 07:14:48;;;;;;;2.97;1.60;;;13.80;99.90;;;;;;4998629;28;20503;-72
2023/10/28 07:17:14;;;;;;;5.23;1.80;;;13.80;99.90;;;;;;4992849;28;20380;-72
2023/10/28 07:19:39;;;;;;;4.20;1.67;;;13.90;99.90;;;;;;4987695;28;20991;-72
2023/10/28 07:22:05;;;;;;;3.87;1.80;;;13.90;99.90;;;;;;4989887;28;20185;-72
2023/10/28 07:24:31;;;;;;;5.40;1.93;;;13.80;99.90;;;;;;5000715;28;20310;-73
2023/10/28 07:26:57;;;;;;;6.23;2.60;;;13.90;99.90;;;;;;4999297;28;20980;-74
2023/10/28 07:29:23;;;;;;;4.20;1.87;;;14.00;99.90;;;;;;4999880;28;20470;-72
2023/10/28 07:31:49;;;;;;;6.97;1.90;;;13.90;99.90;;;;;;5000303;28;20748;-72
2023/10/28 07:34:14;;;;;;;5.13;2.00;;;14.10;99.90;;;;;;4990267;28;20181;-72
2023/10/28 07:36:40;;;;;;;5.53;1.80;;;14.10;99.90;;;;;;5001226;28;20539;-73
2023/10/28 07:39:06;;;;;;;4.00;1.70;;;14.20;99.90;;;;;;4988634;28;20186;-71
2023/10/28 07:41:32;;;;;;;5.17;1.87;;;14.20;99.90;;;;;;4995194;28;20442;-72
2023/10/28 07:43:57;;;;;;;6.23;1.90;;;14.20;99.90;;;;;;4998611;28;20617;-71
2023/10/28 07:46:25;;;;;;;4.80;1.80;;;14.20;99.90;;;;;;4998105;28;20197;-72
2023/10/28 07:48:53;;;;;;;3.33;1.80;;;14.20;99.90;;;;;;4994615;28;20213;-73
2023/10/28 07:51:19;;;;;;;5.77;1.97;;;14.20;99.90;;;;;;4994139;28;20530;-73
2023/10/28 07:53:48;;;;;;;4.13;1.50;;;14.20;99.90;;;;;;4995196;28;20409;-73
2023/10/28 07:56:15;;;;;;;4.13;1.60;;;14.30;99.90;;;;;;4993804;28;20463;-73
2023/10/28 07:58:41;;;;;;;4.33;1.80;;;14.30;99.90;;;;;;5002016;28;20431;-73
2023/10/28 08:01:14;;;;;;;3.10;1.50;;;14.30;99.90;;;;;;4994088;28;20467;-73
2023/10/28 08:03:43;;;;;;;6.17;2.13;;;14.30;99.90;;;;;;5001003;28;20200;-73
2023/10/28 08:06:10;;;;;;;3.03;1.50;;;14.30;99.90;;;;;;4997804;28;20427;-72
2023/10/28 08:08:35;;;;;;;3.57;1.67;;;14.40;99.90;;;;;;4997009;28;20464;-72
2023/10/28 08:11:05;;;;;;;3.73;1.80;;;14.30;99.90;;;;;;5001840;28;20437;-73
2023/10/28 08:13:32;;;;;;;3.60;2.10;;;14.40;99.90;;;;;;5004224;28;20333;-73
2023/10/28 08:15:58;;;;;;;4.73;1.73;;;14.50;99.90;;;;;;4997880;28;20435;-72
2023/10/28 08:18:23;;;;;;;3.67;1.70;;;14.50;99.90;;;;;;4989910;28;20433;-72
2023/10/28 08:20:49;;;;;;;4.23;2.30;;;14.50;99.90;;;;;;4995446;28;20196;-72
2023/10/28 08:23:17;;;;;;;4.10;2.00;;;14.60;99.90;;;;;;4991866;28;20186;-73
2023/10/28 08:25:43;;;;;;;7.20;1.93;;;14.50;99.90;;;;;;5002257;28;20212;-72
2023/10/28 08:28:08;;;;;;;4.67;1.63;;;14.50;99.90;;;;;;4998502;28;20464;-72
2023/10/28 08:30:36;;;;;;;6.03;2.30;;;14.50;99.90;;;;;;4994319;28;20629;-72
2023/10/28 08:33:02;;;;;;;8.23;2.10;;;14.40;99.90;;;;;;4995792;28;20182;-72
2023/10/28 08:35:28;;;;;;;4.47;1.67;;;14.50;99.90;;;;;;4996586;28;20428;-73
2023/10/28 08:37:54;;;;;;;5.07;1.80;;;14.50;99.90;;;;;;4999756;28;20181;-72
2023/10/28 08:40:20;;;;;;;3.50;1.90;;;14.60;99.90;;;;;;5000598;28;20233;-72
2023/10/28 08:42:46;;;;;;;3.30;2.00;;;14.60;99.90;;;;;;4995657;28;20515;-72
2023/10/28 08:45:13;;;;;;;3.73;1.70;;;14.60;99.90;;;;;;4998450;28;21016;-73
2023/10/28 08:47:40;;;;;;;5.43;1.87;;;14.70;99.90;;;;;;5001277;28;20436;-74
2023/10/28 08:50:07;;;;;;;3.73;2.00;;;14.90;99.90;;;;;;5000328;28;20471;-74
2023/10/28 08:52:39;;;;;;;5.90;2.40;;;14.90;99.90;;;;;;5003684;28;20506;-74
2023/10/28 08:55:10;;;;;;;5.47;2.10;;;14.90;99.90;;;;;;5000973;28;20423;-73
2023/10/28 08:57:40;;;;;;;5.27;1.87;;;14.90;99.90;;;;;;5002016;28;20482;-74
2023/10/28 09:00:14;;;;;;;7.03;2.00;;;15.00;99.90;;;;;;4997803;28;20448;-74
2023/10/28 09:02:47;;;;;;;4.80;2.90;;;14.90;99.90;;;;;;5003612;28;20419;-74
2023/10/28 09:05:14;;;;;;;6.33;2.10;;;14.90;99.90;;;;;;5003596;28;20447;-74
2023/10/28 09:07:40;;;;;;;5.30;2.73;;;15.00;99.90;;;;;;5001153;28;20549;-73
2023/10/28 09:10:06;;;;;;;4.47;1.90;;;14.90;99.90;;;;;;4998685;28;20496;-73
2023/10/28 09:12:32;;;;;;;3.80;1.80;;;15.00;99.90;;;;;;5003647;28;20259;-73
2023/10/28 09:14:58;;;;;;;6.43;2.13;;;15.10;99.90;;;;;;5000893;28;20503;-73
2023/10/28 09:17:24;;;;;;;4.13;1.90;;;15.20;99.90;;;;;;5004945;28;20519;-72
2023/10/28 09:19:52;;;;;;;4.70;1.70;;;15.20;99.90;;;;;;5004030;28;20212;-73
2023/10/28 09:22:18;;;;;;;4.77;2.00;;;15.10;99.90;;;;;;5004499;28;20172;-73
2023/10/28 09:24:47;;;;;;;7.07;2.40;;;15.10;99.90;;;;;;4997264;28;20443;-71
2023/10/28 09:27:14;;;;;;;3.80;2.70;;;15.10;99.90;;;;;;4986414;28;20187;-73
2023/10/28 09:29:42;;;;;;;5.80;2.13;;;15.10;99.90;;;;;;4993440;28;21022;-72
2023/10/28 09:32:09;;;;;;;4.60;2.20;;;15.20;99.90;;;;;;4998610;28;20834;-75
2023/10/28 09:34:35;;;;;;;4.20;1.97;;;15.20;99.90;;;;;;4999962;28;21010;-73
2023/10/28 09:37:02;;;;;;;5.30;2.10;;;15.20;99.90;;;;;;4997066;28;20421;-73
2023/10/28 09:39:28;;;;;;;3.73;2.20;;;15.30;99.90;;;;;;5001388;28;20540;-73
2023/10/28 09:41:56;;;;;;;5.33;2.00;;;15.40;99.90;;;;;;5001508;28;20938;-72
2023/10/28 09:44:24;;;;;;;4.07;1.70;;;15.40;99.90;;;;;;4996942;28;20441;-73
2023/10/28 09:46:56;;;;;;;3.83;1.80;;;15.40;99.90;;;;;;4995595;28;20447;-72
2023/10/28 09:49:27;;;;;;;3.33;1.63;;;15.50;99.90;;;;;;5010020;28;20474;-72
2023/10/28 09:51:57;;;;;;;4.70;2.00;;;15.50;99.90;;;;;;4992036;28;20437;-71
2023/10/28 09:54:28;;;;;;;4.33;2.00;;;15.60;99.90;;;;;;4991269;28;21203;-72
2023/10/28 09:56:57;;;;;;;7.47;1.90;;;15.50;99.90;;;;;;4990834;28;20409;-73
2023/10/28 09:59:24;;;;;;;7.33;2.47;;;15.60;99.90;;;;;;4990044;28;20413;-73
2023/10/28 10:02:11;;;;;;;4.63;2.03;;;15.80;99.90;;;;;;4993315;28;20548;-72
2023/10/28 10:04:50;;;;;;;3.57;2.10;;;15.90;99.90;;;;;;4999902;28;21152;-73
2023/10/28 10:07:19;;;;;;;3.10;1.63;;;16.00;99.90;;;;;;4999550;28;20423;-72
2023/10/28 10:09:48;;;;;;;3.63;2.00;;;16.00;99.90;;;;;;4994557;28;20483;-71
2023/10/28 10:12:15;;;;;;;7.47;2.27;;;16.00;99.90;;;;;;4996890;28;20420;-73
2023/10/28 10:14:45;;;;;;;4.70;1.90;;;16.10;99.90;;;;;;4990022;28;20483;-72
2023/10/28 10:17:20;;;;;;;4.80;1.80;;;16.20;99.90;;;;;;4998140;28;20415;-73
2023/10/28 10:19:48;;;;;;;4.00;2.30;;;16.20;99.90;;;;;;4992752;28;20439;-73
2023/10/28 10:22:16;;;;;;;4.83;2.23;;;16.40;99.90;;;;;;4990512;28;21165;-74
2023/10/28 10:24:52;;;;;;;2.83;1.90;;;16.40;99.90;;;;;;4999066;28;20416;-74
2023/10/28 10:27:36;;;;;;;4.33;1.93;;;16.40;99.90;;;;;;4992601;28;20432;-73
2023/10/28 10:30:06;;;;;;;4.17;1.93;;;16.40;99.90;;;;;;4990495;28;20937;-72
2023/10/28 10:32:50;;;;;;;5.53;1.97;;;16.40;99.90;;;;;;4996137;28;20477;-71
2023/10/28 10:35:32;;;;;;;5.03;3.00;;;16.40;99.90;;;;;;5008007;28;20419;-71
2023/10/28 10:38:05;;;;;;;7.53;1.90;;;16.40;99.90;;;;;;4994159;28;20499;-73
2023/10/28 10:40:33;;;;;;;5.80;2.33;;;16.60;99.90;;;;;;4990494;28;20472;-73
2023/10/28 10:43:07;;;;;;;9.03;3.53;;;16.60;99.90;;;;;;4989913;28;20420;-73
2023/10/28 10:45:34;;;;;;;8.60;2.77;;;16.50;99.90;;;;;;4989711;28;20431;-73
2023/10/28 10:48:01;;;;;;;5.10;2.70;;;16.50;99.90;;;;;;4994836;28;20420;-73
2023/10/28 10:50:27;;;;;;;7.83;3.30;;;16.50;99.90;;;;;;4992774;28;20538;-73
2023/10/28 10:52:54;;;;;;;9.10;3.47;;;16.40;99.90;;;;;;4997863;28;20429;-73
2023/10/28 10:55:23;;;;;;;9.03;3.40;;;16.40;99.90;;;;;;4998215;28;20483;-73
2023/10/28 10:57:52;;;;;;;6.30;2.90;;;16.30;99.90;;;;;;5000140;28;20800;-73
2023/10/28 11:00:18;;;;;;;9.13;2.80;;;16.20;99.90;;;;;;4998674;28;20547;-73
2023/10/28 11:02:45;;;;;;;10.07;3.00;;;16.30;99.90;;;;;;4996087;28;20424;-73
2023/10/28 11:05:12;;;;;;;5.87;2.60;;;16.30;99.90;;;;;;5000175;28;20446;-73
2023/10/28 11:07:38;;;;;;;8.90;3.47;;;16.50;99.90;;;;;;4996412;28;20517;-73
2023/10/28 11:10:10;;;;;;;9.00;3.07;;;16.60;99.90;;;;;;4995234;28;21030;-73
2023/10/28 11:12:39;;;;;;;8.70;4.33;;;16.60;99.90;;;;;;4995213;28;20185;-74
2023/10/28 11:15:10;;;;;;;8.37;4.30;;;16.60;99.90;;;;;;4998580;28;20474;-74
2023/10/28 11:17:36;;;;;;;10.03;3.17;;;16.50;99.90;;;;;;5002524;28;20411;-75
2023/10/28 11:20:03;;;;;;;6.93;4.07;;;16.60;99.90;;;;;;4990208;28;20483;-75
2023/10/28 11:22:31;;;;;;;8.63;4.10;;;16.60;99.90;;;;;;4995007;28;20436;-74
2023/10/28 11:24:57;;;;;;;6.53;3.90;;;16.60;99.90;;;;;;4994639;28;20518;-75
2023/10/28 11:27:27;;;;;;;6.83;3.10;;;16.70;99.90;;;;;;4989868;28;20527;-74
2023/10/28 11:29:56;;;;;;;6.93;2.57;;;16.60;99.90;;;;;;5024191;28;20527;-74
2023/10/28 11:32:23;;;;;;;4.97;2.47;;;16.70;99.90;;;;;;4994916;28;20427;-73
2023/10/28 11:34:49;;;;;;;6.33;2.40;;;16.70;99.90;;;;;;5004073;28;20431;-74
2023/10/28 11:37:15;;;;;;;9.47;2.90;;;16.60;99.90;;;;;;4994261;28;20431;-73
2023/10/28 11:39:47;;;;;;;4.20;2.00;;;16.50;99.90;;;;;;5015262;28;20437;-74
2023/10/28 11:42:15;;;;;;;7.13;2.40;;;16.40;99.90;;;;;;4999141;28;20420;-73
2023/10/28 11:44:48;;;;;;;5.70;2.50;;;16.20;99.90;;;;;;5001419;28;20498;-74
2023/10/28 11:47:14;;;;;;;4.13;1.90;;;15.90;99.90;;;;;;4999056;28;20431;-73
2023/10/28 11:49:39;;;;;;;7.13;2.20;;;15.90;99.90;;;;;;4994368;28;20480;-76
2023/10/28 11:52:05;;;;;;;7.23;2.27;;;15.90;99.90;;;;;;5000651;28;20881;-74
2023/10/28 11:54:33;;;;;;;5.07;2.40;;;15.90;99.90;;;;;;4997029;28;20634;-76
2023/10/28 11:56:59;;;;;;;6.53;2.30;;;15.80;99.90;;;;;;4995927;28;20279;-75
2023/10/28 11:59:25;;;;;;;11.23;3.00;;;15.70;99.90;;;;;;4997151;28;21102;-74
2023/10/28 12:01:52;;;;;;;6.80;2.67;;;15.70;99.90;;;;;;5001513;28;20485;-75
2023/10/28 12:04:18;;;;;;;6.27;2.03;;;15.70;99.90;;;;;;4999063;28;20196;-74
2023/10/28 12:06:44;;;;;;;7.33;3.90;;;15.60;99.90;;;;;;5000979;28;20420;-74
2023/10/28 12:09:14;;;;;;;8.90;2.70;;;15.50;99.90;;;;;;4998697;28;20197;-74
2023/10/28 12:11:40;;;;;;;10.97;2.87;;;15.20;99.90;;;;;;4997559;28;20226;-74
2023/10/28 12:14:07;;;;;;;6.47;2.10;;;15.00;99.90;;;;;;4996774;28;20478;-76
2023/10/28 12:16:37;;;;;;;9.50;2.67;;;15.10;99.90;;;;;;4990936;28;20431;-78
2023/10/28 12:19:05;;;;;;;7.47;3.00;;;14.90;99.90;;;;;;4993674;28;20436;-77
2023/10/28 12:21:32;;;;;;;4.50;2.90;;;14.80;99.90;;;;;;4994913;28;20452;-76
2023/10/28 12:23:57;;;;;;;14.77;5.27;;;14.90;99.90;;;;;;4998718;28;21025;-76
2023/10/28 12:26:23;;;;;;;10.77;3.53;;;14.80;99.90;;;;;;4999267;28;20525;-76
2023/10/28 12:28:49;;;;;;;9.87;2.97;;;14.70;99.90;;;;;;5009490;28;20212;-77
2023/10/28 12:31:18;;;;;;;5.40;2.80;;;14.50;99.90;;;;;;5011780;28;20219;-77
2023/10/28 12:33:44;;;;;;;7.07;2.90;;;14.50;99.90;;;;;;4998348;28;20455;-78
2023/10/28 12:36:10;;;;;;;11.53;2.63;;;14.40;99.90;;;;;;4995918;28;20499;-77
2023/10/28 12:38:36;;;;;;;4.70;2.40;;;14.40;99.90;;;;;;5002125;28;21178;-76
2023/10/28 12:41:03;;;;;;;6.50;2.60;;;14.50;99.90;;;;;;4995393;28;20467;-76
2023/10/28 12:43:29;;;;;;;6.43;2.50;;;14.50;99.90;;;;;;4995961;28;21041;-77